sensor_id;sensor_type;location;lat;lon;timestamp;temperature;humidity
6260;DHT22;3163;51.516;4.000;2023-04-25T00:00:21;12.20;99.90
6260;DHT22;3163;51.516;4.000;2023-04-25T00:02:46;12.20;99.90
6260;DHT22;3163;51.516;4.000;2023-04-25T00:05:12;12.30;99.90
6260;DHT22;3163;51.516;4.000;2023-04-25T00:07:40;12.30;99.90
6260;DHT22;3163;51.516;4.000;2023-04-25T00:10:08;12.30;99.90
6260;DHT22;3163;51.516;4.000;2023-04-25T00:12:34;12.20;99.90
6260;DHT22;3163;51.516;4.000;2023-04-25T00:15:01;12.20;99.90
6260;DHT22;3163;51.516;4.000;2023-04-25T00:17:27;12.20;99.90
6260;DHT22;3163;51.516;4.000;2023-04-25T00:19:52;12.20;99.90
6260;DHT22;3163;51.516;4.000;2023-04-25T00:22:19;12.10;99.90
6260;DHT22;3163;51.516;4.000;2023-04-25T00:24:44;12.10;99.90
6260;DHT22;3163;51.516;4.000;2023-04-25T00:27:10;12.10;99.90
6260;DHT22;3163;51.516;4.000;2023-04-25T00:29:36;12.10;99.90
6260;DHT22;3163;51.516;4.000;2023-04-25T00:32:02;12.10;99.90
6260;DHT22;3163;51.516;4.000;2023-04-25T00:34:27;12.10;99.90
6260;DHT22;3163;51.516;4.000;2023-04-25T00:36:53;12.10;99.90
6260;DHT22;3163;51.516;4.000;2023-04-25T00:39:19;12.00;99.90
6260;DHT22;3163;51.516;4.000;2023-04-25T00:41:45;12.00;99.90
6260;DHT22;3163;51.516;4.000;2023-04-25T00:44:11;12.10;99.90
6260;DHT22;3163;51.516;4.000;2023-04-25T00:46:38;12.20;99.90
6260;DHT22;3163;51.516;4.000;2023-04-25T00:49:04;12.20;99.90
6260;DHT22;3163;51.516;4.000;2023-04-25T00:51:31;12.10;99.90
6260;DHT22;3163;51.516;4.000;2023-04-25T00:53:58;12.10;99.90
6260;DHT22;3163;51.516;4.000;2023-04-25T00:56:23;12.10;99.90
6260;DHT22;3163;51.516;4.000;2023-04-25T00:58:53;12.10;99.90
6260;DHT22;3163;51.516;4.000;2023-04-25T01:01:22;12.10;99.90
6260;DHT22;3163;51.516;4.000;2023-04-25T01:03:49;12.00;99.90
6260;DHT22;3163;51.516;4.000;2023-04-25T01:06:17;12.10;99.90
6260;DHT22;3163;51.516;4.000;2023-04-25T01:08:43;12.00;99.90
6260;DHT22;3163;51.516;4.000;2023-04-25T01:11:08;12.00;99.90
6260;DHT22;3163;51.516;4.000;2023-04-25T01:13:34;12.00;99.90
6260;DHT22;3163;51.516;4.000;2023-04-25T01:16:01;12.00;99.90
6260;DHT22;3163;51.516;4.000;2023-04-25T01:18:27;12.00;99.90
6260;DHT22;3163;51.516;4.000;2023-04-25T01:20:53;12.00;99.90
6260;DHT22;3163;51.516;4.000;2023-04-25T01:23:22;12.00;99.90
6260;DHT22;3163;51.516;4.000;2023-04-25T01:25:49;12.10;99.90
6260;DHT22;3163;51.516;4.000;2023-04-25T01:28:15;12.10;99.90
6260;DHT22;3163;51.516;4.000;2023-04-25T01:30:41;12.10;99.90
6260;DHT22;3163;51.516;4.000;2023-04-25T01:33:08;12.10;99.90
6260;DHT22;3163;51.516;4.000;2023-04-25T01:35:33;12.10;99.90
6260;DHT22;3163;51.516;4.000;2023-04-25T01:40:26;12.00;99.90
6260;DHT22;3163;51.516;4.000;2023-04-25T01:42:52;12.00;99.90
6260;DHT22;3163;51.516;4.000;2023-04-25T01:45:18;12.00;99.90
6260;DHT22;3163;51.516;4.000;2023-04-25T01:47:44;12.00;99.90
6260;DHT22;3163;51.516;4.000;2023-04-25T01:50:15;12.00;99.90
6260;DHT22;3163;51.516;4.000;2023-04-25T01:52:41;11.90;99.90
6260;DHT22;3163;51.516;4.000;2023-04-25T01:55:07;11.90;99.90
6260;DHT22;3163;51.516;4.000;2023-04-25T01:57:33;11.90;99.90
6260;DHT22;3163;51.516;4.000;2023-04-25T02:00:00;11.90;99.90
6260;DHT22;3163;51.516;4.000;2023-04-25T02:02:27;11.90;99.90
6260;DHT22;3163;51.516;4.000;2023-04-25T02:04:52;11.80;99.90
6260;DHT22;3163;51.516;4.000;2023-04-25T02:07:19;11.90;99.90
6260;DHT22;3163;51.516;4.000;2023-04-25T02:09:45;11.90;99.90
6260;DHT22;3163;51.516;4.000;2023-04-25T02:12:10;12.00;99.90
6260;DHT22;3163;51.516;4.000;2023-04-25T02:14:36;12.00;99.90
6260;DHT22;3163;51.516;4.000;2023-04-25T02:17:02;12.00;99.90
6260;DHT22;3163;51.516;4.000;2023-04-25T02:19:28;11.90;99.90
6260;DHT22;3163;51.516;4.000;2023-04-25T02:21:53;11.90;99.90
6260;DHT22;3163;51.516;4.000;2023-04-25T02:24:19;11.90;99.90
6260;DHT22;3163;51.516;4.000;2023-04-25T02:26:45;11.80;99.90
6260;DHT22;3163;51.516;4.000;2023-04-25T02:29:12;11.80;99.90
6260;DHT22;3163;51.516;4.000;2023-04-25T02:31:38;11.80;99.90
6260;DHT22;3163;51.516;4.000;2023-04-25T02:34:03;11.70;99.90
6260;DHT22;3163;51.516;4.000;2023-04-25T02:36:29;11.60;99.90
6260;DHT22;3163;51.516;4.000;2023-04-25T02:38:57;11.60;99.90
6260;DHT22;3163;51.516;4.000;2023-04-25T02:41:23;11.60;99.90
6260;DHT22;3163;51.516;4.000;2023-04-25T02:43:48;11.70;99.90
6260;DHT22;3163;51.516;4.000;2023-04-25T02:46:14;11.60;99.90
6260;DHT22;3163;51.516;4.000;2023-04-25T02:48:40;11.50;99.90
6260;DHT22;3163;51.516;4.000;2023-04-25T02:51:05;11.60;99.90
6260;DHT22;3163;51.516;4.000;2023-04-25T02:53:31;11.60;99.90
6260;DHT22;3163;51.516;4.000;2023-04-25T02:55:56;11.60;99.90
6260;DHT22;3163;51.516;4.000;2023-04-25T02:58:23;11.70;99.90
6260;DHT22;3163;51.516;4.000;2023-04-25T03:00:49;11.70;99.90
6260;DHT22;3163;51.516;4.000;2023-04-25T03:03:14;11.80;99.90
6260;DHT22;3163;51.516;4.000;2023-04-25T03:05:43;11.80;99.90
6260;DHT22;3163;51.516;4.000;2023-04-25T03:08:09;11.80;99.90
6260;DHT22;3163;51.516;4.000;2023-04-25T03:10:34;11.80;99.90
6260;DHT22;3163;51.516;4.000;2023-04-25T03:13:00;11.80;99.90
6260;DHT22;3163;51.516;4.000;2023-04-25T03:15:26;11.80;99.90
6260;DHT22;3163;51.516;4.000;2023-04-25T03:17:51;11.80;99.90
6260;DHT22;3163;51.516;4.000;2023-04-25T03:20:17;11.70;99.90
6260;DHT22;3163;51.516;4.000;2023-04-25T03:22:43;11.80;99.90
6260;DHT22;3163;51.516;4.000;2023-04-25T03:25:09;11.80;99.90
6260;DHT22;3163;51.516;4.000;2023-04-25T03:27:35;11.70;99.90
6260;DHT22;3163;51.516;4.000;2023-04-25T03:30:01;11.70;99.90
6260;DHT22;3163;51.516;4.000;2023-04-25T03:32:26;11.70;99.90
6260;DHT22;3163;51.516;4.000;2023-04-25T03:34:52;11.70;99.90
6260;DHT22;3163;51.516;4.000;2023-04-25T03:37:17;11.80;99.90
6260;DHT22;3163;51.516;4.000;2023-04-25T03:39:43;11.80;99.90
6260;DHT22;3163;51.516;4.000;2023-04-25T03:42:09;11.90;99.90
6260;DHT22;3163;51.516;4.000;2023-04-25T03:44:34;11.80;99.90
6260;DHT22;3163;51.516;4.000;2023-04-25T03:47:00;11.70;99.90
6260;DHT22;3163;51.516;4.000;2023-04-25T03:49:25;11.70;99.90
6260;DHT22;3163;51.516;4.000;2023-04-25T03:51:53;11.70;99.90
6260;DHT22;3163;51.516;4.000;2023-04-25T03:54:20;11.70;99.90
6260;DHT22;3163;51.516;4.000;2023-04-25T03:56:52;11.60;99.90
6260;DHT22;3163;51.516;4.000;2023-04-25T03:59:17;11.60;99.90
6260;DHT22;3163;51.516;4.000;2023-04-25T04:01:44;11.60;99.90
6260;DHT22;3163;51.516;4.000;2023-04-25T04:04:11;11.60;99.90
6260;DHT22;3163;51.516;4.000;2023-04-25T04:06:37;11.60;99.90
6260;DHT22;3163;51.516;4.000;2023-04-25T04:09:08;11.60;99.90
6260;DHT22;3163;51.516;4.000;2023-04-25T04:11:39;11.60;99.90
6260;DHT22;3163;51.516;4.000;2023-04-25T04:14:06;11.60;99.90
6260;DHT22;3163;51.516;4.000;2023-04-25T04:16:32;11.60;99.90
6260;DHT22;3163;51.516;4.000;2023-04-25T04:18:59;11.60;99.90
6260;DHT22;3163;51.516;4.000;2023-04-25T04:21:26;11.60;99.90
6260;DHT22;3163;51.516;4.000;2023-04-25T04:23:53;11.60;99.90
6260;DHT22;3163;51.516;4.000;2023-04-25T04:26:20;11.70;99.90
6260;DHT22;3163;51.516;4.000;2023-04-25T04:28:49;11.70;99.90
6260;DHT22;3163;51.516;4.000;2023-04-25T04:31:20;11.70;99.90
6260;DHT22;3163;51.516;4.000;2023-04-25T04:33:50;11.70;99.90
6260;DHT22;3163;51.516;4.000;2023-04-25T04:36:17;11.60;99.90
6260;DHT22;3163;51.516;4.000;2023-04-25T04:38:47;11.60;99.90
6260;DHT22;3163;51.516;4.000;2023-04-25T04:41:15;11.60;99.90
6260;DHT22;3163;51.516;4.000;2023-04-25T04:43:41;11.60;99.90
6260;DHT22;3163;51.516;4.000;2023-04-25T04:46:07;11.60;99.90
6260;DHT22;3163;51.516;4.000;2023-04-25T04:48:35;11.60;99.90
6260;DHT22;3163;51.516;4.000;2023-04-25T04:51:02;11.60;99.90
6260;DHT22;3163;51.516;4.000;2023-04-25T04:53:29;11.50;99.90
6260;DHT22;3163;51.516;4.000;2023-04-25T04:55:55;11.60;99.90
6260;DHT22;3163;51.516;4.000;2023-04-25T04:58:21;11.50;99.90
6260;DHT22;3163;51.516;4.000;2023-04-25T05:00:47;11.60;99.90
6260;DHT22;3163;51.516;4.000;2023-04-25T05:03:13;11.60;99.90
6260;DHT22;3163;51.516;4.000;2023-04-25T05:05:38;11.60;99.90
6260;DHT22;3163;51.516;4.000;2023-04-25T05:08:06;11.70;99.90
6260;DHT22;3163;51.516;4.000;2023-04-25T05:10:31;11.80;99.90
6260;DHT22;3163;51.516;4.000;2023-04-25T05:12:57;11.90;99.90
6260;DHT22;3163;51.516;4.000;2023-04-25T05:15:24;12.00;99.90
6260;DHT22;3163;51.516;4.000;2023-04-25T05:17:51;12.00;99.90
6260;DHT22;3163;51.516;4.000;2023-04-25T05:20:16;12.00;99.90
6260;DHT22;3163;51.516;4.000;2023-04-25T05:22:47;12.00;99.90
6260;DHT22;3163;51.516;4.000;2023-04-25T05:25:12;12.00;99.90
6260;DHT22;3163;51.516;4.000;2023-04-25T05:27:40;12.00;99.90
6260;DHT22;3163;51.516;4.000;2023-04-25T05:30:08;12.10;99.90
6260;DHT22;3163;51.516;4.000;2023-04-25T05:32:35;12.00;99.90
6260;DHT22;3163;51.516;4.000;2023-04-25T05:35:01;12.10;99.90
6260;DHT22;3163;51.516;4.000;2023-04-25T05:37:26;12.10;99.90
6260;DHT22;3163;51.516;4.000;2023-04-25T05:39:52;12.10;99.90
6260;DHT22;3163;51.516;4.000;2023-04-25T05:42:21;12.10;99.90
6260;DHT22;3163;51.516;4.000;2023-04-25T05:44:47;12.00;99.90
6260;DHT22;3163;51.516;4.000;2023-04-25T05:47:13;12.10;99.90
6260;DHT22;3163;51.516;4.000;2023-04-25T05:49:38;12.20;99.90
6260;DHT22;3163;51.516;4.000;2023-04-25T05:52:04;12.10;99.90
6260;DHT22;3163;51.516;4.000;2023-04-25T05:54:30;12.20;99.90
6260;DHT22;3163;51.516;4.000;2023-04-25T05:56:58;12.10;99.90
6260;DHT22;3163;51.516;4.000;2023-04-25T05:59:24;12.30;99.90
6260;DHT22;3163;51.516;4.000;2023-04-25T06:01:50;12.20;99.90
6260;DHT22;3163;51.516;4.000;2023-04-25T06:04:15;12.20;99.90
6260;DHT22;3163;51.516;4.000;2023-04-25T06:06:41;12.10;99.90
6260;DHT22;3163;51.516;4.000;2023-04-25T06:09:07;12.20;99.90
6260;DHT22;3163;51.516;4.000;2023-04-25T06:11:32;12.20;99.90
6260;DHT22;3163;51.516;4.000;2023-04-25T06:13:58;12.20;99.90
6260;DHT22;3163;51.516;4.000;2023-04-25T06:16:23;12.30;99.90
6260;DHT22;3163;51.516;4.000;2023-04-25T06:18:51;12.20;99.90
6260;DHT22;3163;51.516;4.000;2023-04-25T06:21:17;12.40;99.90
6260;DHT22;3163;51.516;4.000;2023-04-25T06:23:42;12.30;99.90
6260;DHT22;3163;51.516;4.000;2023-04-25T06:26:09;12.50;99.90
6260;DHT22;3163;51.516;4.000;2023-04-25T06:28:35;12.30;99.90
6260;DHT22;3163;51.516;4.000;2023-04-25T06:31:01;12.30;99.90
6260;DHT22;3163;51.516;4.000;2023-04-25T06:33:26;12.30;99.90
6260;DHT22;3163;51.516;4.000;2023-04-25T06:35:52;12.20;99.90
6260;DHT22;3163;51.516;4.000;2023-04-25T06:38:18;12.40;99.90
6260;DHT22;3163;51.516;4.000;2023-04-25T06:40:43;12.30;99.90
6260;DHT22;3163;51.516;4.000;2023-04-25T06:43:09;12.40;99.90
6260;DHT22;3163;51.516;4.000;2023-04-25T06:45:35;12.40;99.90
6260;DHT22;3163;51.516;4.000;2023-04-25T06:48:01;12.30;99.90
6260;DHT22;3163;51.516;4.000;2023-04-25T06:50:26;12.40;99.90
6260;DHT22;3163;51.516;4.000;2023-04-25T06:52:52;12.40;99.90
6260;DHT22;3163;51.516;4.000;2023-04-25T06:55:18;12.50;99.90
6260;DHT22;3163;51.516;4.000;2023-04-25T06:57:44;12.40;99.90
6260;DHT22;3163;51.516;4.000;2023-04-25T07:00:10;12.50;99.90
6260;DHT22;3163;51.516;4.000;2023-04-25T07:02:36;12.50;99.90
6260;DHT22;3163;51.516;4.000;2023-04-25T07:05:02;12.50;99.90
6260;DHT22;3163;51.516;4.000;2023-04-25T07:07:30;12.60;99.90
6260;DHT22;3163;51.516;4.000;2023-04-25T07:09:56;12.60;99.90
6260;DHT22;3163;51.516;4.000;2023-04-25T07:12:22;12.60;99.90
6260;DHT22;3163;51.516;4.000;2023-04-25T07:14:48;12.70;99.90
6260;DHT22;3163;51.516;4.000;2023-04-25T07:17:13;12.70;99.90
6260;DHT22;3163;51.516;4.000;2023-04-25T07:19:39;12.60;99.90
6260;DHT22;3163;51.516;4.000;2023-04-25T07:22:06;12.60;99.90
6260;DHT22;3163;51.516;4.000;2023-04-25T07:24:32;12.50;99.90
6260;DHT22;3163;51.516;4.000;2023-04-25T07:26:58;12.70;99.90
6260;DHT22;3163;51.516;4.000;2023-04-25T07:29:23;12.70;99.90
6260;DHT22;3163;51.516;4.000;2023-04-25T07:31:50;12.80;99.90
6260;DHT22;3163;51.516;4.000;2023-04-25T07:34:15;12.80;99.90
6260;DHT22;3163;51.516;4.000;2023-04-25T07:36:41;12.50;99.90
6260;DHT22;3163;51.516;4.000;2023-04-25T07:39:08;12.50;99.90
6260;DHT22;3163;51.516;4.000;2023-04-25T07:41:35;12.60;99.90
6260;DHT22;3163;51.516;4.000;2023-04-25T07:44:00;12.60;99.90
6260;DHT22;3163;51.516;4.000;2023-04-25T07:46:26;12.60;99.90
6260;DHT22;3163;51.516;4.000;2023-04-25T07:48:51;12.60;99.90
6260;DHT22;3163;51.516;4.000;2023-04-25T07:51:17;12.60;99.90
6260;DHT22;3163;51.516;4.000;2023-04-25T07:53:45;12.60;99.90
6260;DHT22;3163;51.516;4.000;2023-04-25T07:56:11;12.70;99.90
6260;DHT22;3163;51.516;4.000;2023-04-25T07:58:37;12.70;99.90
6260;DHT22;3163;51.516;4.000;2023-04-25T08:01:03;12.70;99.90
6260;DHT22;3163;51.516;4.000;2023-04-25T08:03:28;12.70;99.90
6260;DHT22;3163;51.516;4.000;2023-04-25T08:05:54;12.80;99.90
6260;DHT22;3163;51.516;4.000;2023-04-25T08:08:21;12.90;99.90
6260;DHT22;3163;51.516;4.000;2023-04-25T08:10:46;12.90;99.90
6260;DHT22;3163;51.516;4.000;2023-04-25T08:13:13;13.10;99.90
6260;DHT22;3163;51.516;4.000;2023-04-25T08:15:39;13.10;99.90
6260;DHT22;3163;51.516;4.000;2023-04-25T08:18:05;13.00;99.90
6260;DHT22;3163;51.516;4.000;2023-04-25T08:20:30;12.80;99.90
6260;DHT22;3163;51.516;4.000;2023-04-25T08:22:56;12.80;99.90
6260;DHT22;3163;51.516;4.000;2023-04-25T08:25:22;12.90;99.90
6260;DHT22;3163;51.516;4.000;2023-04-25T08:27:47;12.80;99.90
6260;DHT22;3163;51.516;4.000;2023-04-25T08:30:13;13.20;99.90
6260;DHT22;3163;51.516;4.000;2023-04-25T08:32:39;13.00;99.90
6260;DHT22;3163;51.516;4.000;2023-04-25T08:35:05;12.90;99.90
6260;DHT22;3163;51.516;4.000;2023-04-25T08:37:32;13.00;99.90
6260;DHT22;3163;51.516;4.000;2023-04-25T08:39:57;13.40;99.90
6260;DHT22;3163;51.516;4.000;2023-04-25T08:42:23;13.50;99.90
6260;DHT22;3163;51.516;4.000;2023-04-25T08:44:50;13.60;99.90
6260;DHT22;3163;51.516;4.000;2023-04-25T08:47:21;13.60;99.90
6260;DHT22;3163;51.516;4.000;2023-04-25T08:49:48;13.70;99.90
6260;DHT22;3163;51.516;4.000;2023-04-25T08:52:16;13.60;99.90
6260;DHT22;3163;51.516;4.000;2023-04-25T08:54:48;13.50;99.90
6260;DHT22;3163;51.516;4.000;2023-04-25T08:57:15;13.40;99.90
6260;DHT22;3163;51.516;4.000;2023-04-25T08:59:41;13.50;99.90
6260;DHT22;3163;51.516;4.000;2023-04-25T09:02:11;13.50;99.90
6260;DHT22;3163;51.516;4.000;2023-04-25T09:04:40;13.90;99.90
6260;DHT22;3163;51.516;4.000;2023-04-25T09:07:07;13.20;99.90
6260;DHT22;3163;51.516;4.000;2023-04-25T09:09:33;11.90;99.90
6260;DHT22;3163;51.516;4.000;2023-04-25T09:11:59;13.50;99.90
6260;DHT22;3163;51.516;4.000;2023-04-25T09:14:25;14.00;99.90
6260;DHT22;3163;51.516;4.000;2023-04-25T09:19:31;14.40;99.90
6260;DHT22;3163;51.516;4.000;2023-04-25T09:21:59;14.40;99.90
6260;DHT22;3163;51.516;4.000;2023-04-25T09:24:43;14.60;99.90
6260;DHT22;3163;51.516;4.000;2023-04-25T09:27:11;14.80;99.90
6260;DHT22;3163;51.516;4.000;2023-04-25T09:29:39;14.70;99.90
6260;DHT22;3163;51.516;4.000;2023-04-25T09:32:26;14.50;99.90
6260;DHT22;3163;51.516;4.000;2023-04-25T09:34:54;14.80;99.90
6260;DHT22;3163;51.516;4.000;2023-04-25T09:37:20;14.90;99.90
6260;DHT22;3163;51.516;4.000;2023-04-25T09:39:48;14.30;99.90
6260;DHT22;3163;51.516;4.000;2023-04-25T09:42:15;14.40;99.90
6260;DHT22;3163;51.516;4.000;2023-04-25T09:44:46;14.60;99.90
6260;DHT22;3163;51.516;4.000;2023-04-25T09:47:14;14.50;99.90
6260;DHT22;3163;51.516;4.000;2023-04-25T09:49:42;15.10;99.90
6260;DHT22;3163;51.516;4.000;2023-04-25T09:52:09;15.30;99.90
6260;DHT22;3163;51.516;4.000;2023-04-25T09:54:35;15.50;99.90
6260;DHT22;3163;51.516;4.000;2023-04-25T09:57:10;15.50;99.90
6260;DHT22;3163;51.516;4.000;2023-04-25T09:59:39;15.50;99.90
6260;DHT22;3163;51.516;4.000;2023-04-25T10:02:07;15.70;99.90
6260;DHT22;3163;51.516;4.000;2023-04-25T10:04:34;15.70;99.90
6260;DHT22;3163;51.516;4.000;2023-04-25T10:07:10;15.50;99.90
6260;DHT22;3163;51.516;4.000;2023-04-25T10:09:37;15.90;99.90
6260;DHT22;3163;51.516;4.000;2023-04-25T10:12:06;15.90;99.90
6260;DHT22;3163;51.516;4.000;2023-04-25T10:14:34;15.70;99.90
6260;DHT22;3163;51.516;4.000;2023-04-25T10:17:00;15.70;99.90
6260;DHT22;3163;51.516;4.000;2023-04-25T10:19:27;15.40;99.90
6260;DHT22;3163;51.516;4.000;2023-04-25T10:24:21;15.10;99.90
6260;DHT22;3163;51.516;4.000;2023-04-25T10:26:48;15.40;99.90
6260;DHT22;3163;51.516;4.000;2023-04-25T10:29:22;15.20;99.90
6260;DHT22;3163;51.516;4.000;2023-04-25T10:31:49;14.90;99.90
6260;DHT22;3163;51.516;4.000;2023-04-25T10:34:16;14.80;99.90
6260;DHT22;3163;51.516;4.000;2023-04-25T10:36:42;15.00;99.90
6260;DHT22;3163;51.516;4.000;2023-04-25T10:39:08;14.90;99.90
6260;DHT22;3163;51.516;4.000;2023-04-25T10:41:55;15.10;99.90
6260;DHT22;3163;51.516;4.000;2023-04-25T10:44:21;15.30;99.90
6260;DHT22;3163;51.516;4.000;2023-04-25T10:46:47;15.60;99.90
6260;DHT22;3163;51.516;4.000;2023-04-25T10:52:11;15.70;99.90
6260;DHT22;3163;51.516;4.000;2023-04-25T11:00:12;15.70;99.90
6260;DHT22;3163;51.516;4.000;2023-04-25T11:02:41;15.50;99.90
6260;DHT22;3163;51.516;4.000;2023-04-25T11:05:08;15.60;99.90
6260;DHT22;3163;51.516;4.000;2023-04-25T11:07:43;15.20;99.90
6260;DHT22;3163;51.516;4.000;2023-04-25T11:10:09;15.80;99.90
6260;DHT22;3163;51.516;4.000;2023-04-25T11:12:35;16.40;99.90
6260;DHT22;3163;51.516;4.000;2023-04-25T11:15:05;16.20;99.90
6260;DHT22;3163;51.516;4.000;2023-04-25T11:17:32;15.60;99.90
6260;DHT22;3163;51.516;4.000;2023-04-25T11:19:59;15.70;99.90
6260;DHT22;3163;51.516;4.000;2023-04-25T11:22:27;16.10;99.90
6260;DHT22;3163;51.516;4.000;2023-04-25T11:24:53;16.20;99.90
6260;DHT22;3163;51.516;4.000;2023-04-25T11:27:18;16.20;99.90
6260;DHT22;3163;51.516;4.000;2023-04-25T11:29:44;16.30;99.90
6260;DHT22;3163;51.516;4.000;2023-04-25T11:32:10;16.10;99.90
6260;DHT22;3163;51.516;4.000;2023-04-25T11:34:36;16.40;99.90
6260;DHT22;3163;51.516;4.000;2023-04-25T11:37:02;16.30;99.90
6260;DHT22;3163;51.516;4.000;2023-04-25T11:39:29;16.30;99.90
6260;DHT22;3163;51.516;4.000;2023-04-25T11:41:55;16.30;99.90
6260;DHT22;3163;51.516;4.000;2023-04-25T11:44:22;16.40;99.90
6260;DHT22;3163;51.516;4.000;2023-04-25T11:46:48;16.80;99.90
6260;DHT22;3163;51.516;4.000;2023-04-25T11:49:14;16.90;99.90
6260;DHT22;3163;51.516;4.000;2023-04-25T11:51:42;16.90;99.90
6260;DHT22;3163;51.516;4.000;2023-04-25T11:54:09;16.80;99.90
6260;DHT22;3163;51.516;4.000;2023-04-25T11:56:34;17.00;99.90
6260;DHT22;3163;51.516;4.000;2023-04-25T11:59:04;17.30;99.90
6260;DHT22;3163;51.516;4.000;2023-04-25T12:01:34;16.50;99.90
6260;DHT22;3163;51.516;4.000;2023-04-25T12:04:16;16.30;99.90
6260;DHT22;3163;51.516;4.000;2023-04-25T12:06:43;16.10;99.90
6260;DHT22;3163;51.516;4.000;2023-04-25T12:09:11;17.00;99.90
6260;DHT22;3163;51.516;4.000;2023-04-25T12:11:46;17.10;99.90
6260;DHT22;3163;51.516;4.000;2023-04-25T12:14:12;17.40;99.90
6260;DHT22;3163;51.516;4.000;2023-04-25T12:16:46;17.50;99.90
6260;DHT22;3163;51.516;4.000;2023-04-25T12:19:15;17.40;99.90
6260;DHT22;3163;51.516;4.000;2023-04-25T12:21:42;17.40;99.90
6260;DHT22;3163;51.516;4.000;2023-04-25T12:24:21;17.40;99.90
6260;DHT22;3163;51.516;4.000;2023-04-25T12:29:23;17.60;99.90
6260;DHT22;3163;51.516;4.000;2023-04-25T12:31:50;17.40;99.90
6260;DHT22;3163;51.516;4.000;2023-04-25T12:34:17;17.70;99.90
6260;DHT22;3163;51.516;4.000;2023-04-25T12:36:42;17.90;99.90
6260;DHT22;3163;51.516;4.000;2023-04-25T12:39:08;17.70;99.90
6260;DHT22;3163;51.516;4.000;2023-04-25T12:41:33;17.90;99.90
6260;DHT22;3163;51.516;4.000;2023-04-25T12:43:59;17.60;99.90
6260;DHT22;3163;51.516;4.000;2023-04-25T12:46:25;16.90;99.90
6260;DHT22;3163;51.516;4.000;2023-04-25T12:48:50;17.10;99.90
6260;DHT22;3163;51.516;4.000;2023-04-25T12:51:16;17.80;99.90
6260;DHT22;3163;51.516;4.000;2023-04-25T12:53:42;17.60;99.90
6260;DHT22;3163;51.516;4.000;2023-04-25T12:56:08;17.40;99.90
6260;DHT22;3163;51.516;4.000;2023-04-25T12:58:33;17.50;99.90
6260;DHT22;3163;51.516;4.000;2023-04-25T13:00:59;17.50;99.90
6260;DHT22;3163;51.516;4.000;2023-04-25T13:03:25;17.50;99.90
6260;DHT22;3163;51.516;4.000;2023-04-25T13:05:51;17.70;99.90
6260;DHT22;3163;51.516;4.000;2023-04-25T13:08:20;17.70;99.90
6260;DHT22;3163;51.516;4.000;2023-04-25T13:10:47;17.50;99.90
6260;DHT22;3163;51.516;4.000;2023-04-25T13:13:13;17.80;99.90
6260;DHT22;3163;51.516;4.000;2023-04-25T13:15:39;17.70;99.90
6260;DHT22;3163;51.516;4.000;2023-04-25T13:18:04;17.40;99.90
6260;DHT22;3163;51.516;4.000;2023-04-25T13:20:33;17.50;99.90
6260;DHT22;3163;51.516;4.000;2023-04-25T13:22:59;16.50;99.90
6260;DHT22;3163;51.516;4.000;2023-04-25T13:25:25;16.70;99.90
6260;DHT22;3163;51.516;4.000;2023-04-25T13:27:51;16.60;99.90
6260;DHT22;3163;51.516;4.000;2023-04-25T13:30:16;16.00;99.90
6260;DHT22;3163;51.516;4.000;2023-04-25T13:32:42;16.60;99.90
6260;DHT22;3163;51.516;4.000;2023-04-25T13:35:09;16.80;99.90
6260;DHT22;3163;51.516;4.000;2023-04-25T13:37:36;13.50;99.90
6260;DHT22;3163;51.516;4.000;2023-04-25T13:40:03;16.70;98.90
6260;DHT22;3163;51.516;4.000;2023-04-25T13:42:31;16.70;99.60
6260;DHT22;3163;51.516;4.000;2023-04-25T13:44:56;16.60;99.90
6260;DHT22;3163;51.516;4.000;2023-04-25T13:47:22;16.80;99.90
6260;DHT22;3163;51.516;4.000;2023-04-25T13:49:49;16.80;99.90
6260;DHT22;3163;51.516;4.000;2023-04-25T13:52:14;17.10;99.90
6260;DHT22;3163;51.516;4.000;2023-04-25T13:54:40;17.30;99.90
6260;DHT22;3163;51.516;4.000;2023-04-25T13:57:06;17.60;99.90
6260;DHT22;3163;51.516;4.000;2023-04-25T13:59:32;17.80;99.90
6260;DHT22;3163;51.516;4.000;2023-04-25T14:01:58;17.80;99.90
6260;DHT22;3163;51.516;4.000;2023-04-25T14:04:23;17.50;99.90
6260;DHT22;3163;51.516;4.000;2023-04-25T14:06:50;17.60;99.90
6260;DHT22;3163;51.516;4.000;2023-04-25T14:09:16;17.50;99.90
6260;DHT22;3163;51.516;4.000;2023-04-25T14:11:41;17.70;99.90
6260;DHT22;3163;51.516;4.000;2023-04-25T14:14:07;17.50;99.90
6260;DHT22;3163;51.516;4.000;2023-04-25T14:16:33;17.90;99.90
6260;DHT22;3163;51.516;4.000;2023-04-25T14:18:58;17.60;99.90
6260;DHT22;3163;51.516;4.000;2023-04-25T14:21:24;17.40;99.90
6260;DHT22;3163;51.516;4.000;2023-04-25T14:23:50;17.70;99.90
6260;DHT22;3163;51.516;4.000;2023-04-25T14:26:16;17.80;99.90
6260;DHT22;3163;51.516;4.000;2023-04-25T14:28:41;17.70;99.90
6260;DHT22;3163;51.516;4.000;2023-04-25T14:31:07;18.00;99.90
6260;DHT22;3163;51.516;4.000;2023-04-25T14:33:33;17.90;99.90
6260;DHT22;3163;51.516;4.000;2023-04-25T14:35:59;17.90;99.90
6260;DHT22;3163;51.516;4.000;2023-04-25T14:38:24;17.90;99.90
6260;DHT22;3163;51.516;4.000;2023-04-25T14:40:51;18.00;99.90
6260;DHT22;3163;51.516;4.000;2023-04-25T14:43:17;17.80;99.90
6260;DHT22;3163;51.516;4.000;2023-04-25T14:45:43;17.90;99.90
6260;DHT22;3163;51.516;4.000;2023-04-25T14:48:08;18.10;99.90
6260;DHT22;3163;51.516;4.000;2023-04-25T14:50:34;18.00;99.90
6260;DHT22;3163;51.516;4.000;2023-04-25T14:53:00;17.90;99.90
6260;DHT22;3163;51.516;4.000;2023-04-25T14:55:28;17.70;99.90
6260;DHT22;3163;51.516;4.000;2023-04-25T14:57:54;17.90;99.90
6260;DHT22;3163;51.516;4.000;2023-04-25T15:00:21;17.70;99.90
6260;DHT22;3163;51.516;4.000;2023-04-25T15:02:48;18.00;99.90
6260;DHT22;3163;51.516;4.000;2023-04-25T15:05:14;18.10;99.90
6260;DHT22;3163;51.516;4.000;2023-04-25T15:07:40;18.30;99.90
6260;DHT22;3163;51.516;4.000;2023-04-25T15:10:07;18.30;99.90
6260;DHT22;3163;51.516;4.000;2023-04-25T15:12:44;18.30;99.90
6260;DHT22;3163;51.516;4.000;2023-04-25T15:15:10;18.00;99.90
6260;DHT22;3163;51.516;4.000;2023-04-25T15:17:43;17.60;99.90
6260;DHT22;3163;51.516;4.000;2023-04-25T15:20:10;17.80;99.90
6260;DHT22;3163;51.516;4.000;2023-04-25T15:22:38;18.00;99.90
6260;DHT22;3163;51.516;4.000;2023-04-25T15:25:04;17.90;99.90
6260;DHT22;3163;51.516;4.000;2023-04-25T15:27:29;17.80;99.90
6260;DHT22;3163;51.516;4.000;2023-04-25T15:29:56;17.80;99.90
6260;DHT22;3163;51.516;4.000;2023-04-25T15:32:21;18.00;99.90
6260;DHT22;3163;51.516;4.000;2023-04-25T15:34:47;17.80;99.90
6260;DHT22;3163;51.516;4.000;2023-04-25T15:37:13;17.90;99.90
6260;DHT22;3163;51.516;4.000;2023-04-25T15:39:39;17.80;99.90
6260;DHT22;3163;51.516;4.000;2023-04-25T15:42:04;17.80;99.90
6260;DHT22;3163;51.516;4.000;2023-04-25T15:44:30;17.70;99.90
6260;DHT22;3163;51.516;4.000;2023-04-25T15:46:56;17.90;99.90
6260;DHT22;3163;51.516;4.000;2023-04-25T15:49:21;17.60;99.90
6260;DHT22;3163;51.516;4.000;2023-04-25T15:51:47;17.70;99.90
6260;DHT22;3163;51.516;4.000;2023-04-25T15:54:13;17.60;99.90
6260;DHT22;3163;51.516;4.000;2023-04-25T15:56:39;17.50;99.90
6260;DHT22;3163;51.516;4.000;2023-04-25T15:59:04;17.60;99.90
6260;DHT22;3163;51.516;4.000;2023-04-25T16:03:57;17.60;99.90
6260;DHT22;3163;51.516;4.000;2023-04-25T16:06:23;17.60;99.90
6260;DHT22;3163;51.516;4.000;2023-04-25T16:08:50;17.60;99.90
6260;DHT22;3163;51.516;4.000;2023-04-25T16:11:16;17.50;99.90
6260;DHT22;3163;51.516;4.000;2023-04-25T16:13:42;17.50;99.90
6260;DHT22;3163;51.516;4.000;2023-04-25T16:16:08;13.10;99.10
6260;DHT22;3163;51.516;4.000;2023-04-25T16:18:34;12.10;99.90